createdAt,value
2019-02-06T00:00:26.260Z,102204.97
2019-02-06T00:02:45.110Z,102208.88
2019-02-06T00:05:14.527Z,102205.02
2019-02-06T00:07:43.562Z,102202.84
2019-02-06T00:10:11.898Z,102202.00
2019-02-06T00:12:40.164Z,102201.16
2019-02-06T00:15:08.646Z,102205.47
2019-02-06T00:17:37.010Z,102205.02
2019-02-06T00:20:07.686Z,102201.12
2019-02-06T00:22:36.440Z,102202.86
2019-02-06T00:25:06.233Z,102203.70
2019-02-06T00:27:34.525Z,102202.86
2019-02-06T00:30:03.731Z,102196.42
2019-02-06T00:32:32.012Z,102194.29
2019-02-06T00:35:00.340Z,102198.16
2019-02-06T00:37:28.550Z,102199.00
2019-02-06T00:39:58.567Z,102196.47
2019-02-06T00:42:26.851Z,102194.30
2019-02-06T00:44:55.204Z,102193.45
2019-02-06T00:47:23.485Z,102196.86
2019-02-06T00:49:51.756Z,102200.78
2019-02-06T00:52:20.028Z,102192.63
2019-02-06T00:54:48.304Z,102194.74
2019-02-06T00:57:16.671Z,102195.56
2019-02-06T00:59:44.945Z,102196.02
2019-02-06T01:02:13.279Z,102193.00
2019-02-06T01:04:41.647Z,102194.72
2019-02-06T01:07:09.904Z,102197.72
2019-02-06T01:09:38.173Z,102195.13
2019-02-06T01:12:06.446Z,102197.29
2019-02-06T01:14:34.711Z,102194.30
2019-02-06T01:17:02.999Z,102192.55
2019-02-06T01:19:31.278Z,102188.75
2019-02-06T01:21:59.605Z,102184.87
2019-02-06T01:24:27.868Z,102185.34
2019-02-06T01:26:56.128Z,102192.71
2019-02-06T01:29:24.410Z,102190.55
2019-02-06T01:31:53.140Z,102195.33
2019-02-06T01:34:21.426Z,102191.52
2019-02-06T01:36:49.693Z,102184.66
2019-02-06T01:39:17.974Z,102173.47
2019-02-06T01:41:46.253Z,102171.73
2019-02-06T01:44:14.511Z,102175.62
2019-02-06T01:46:42.793Z,102174.78
2019-02-06T01:49:11.071Z,102181.67
2019-02-06T01:51:39.325Z,102180.81
2019-02-06T01:54:07.617Z,102179.09
2019-02-06T01:56:35.863Z,102186.88
2019-02-06T01:59:04.125Z,102188.58
2019-02-06T02:01:32.423Z,102181.74
2019-02-06T02:04:00.747Z,102181.36
2019-02-06T02:06:29.000Z,102184.78
2019-02-06T02:08:58.953Z,102175.81
2019-02-06T02:11:27.360Z,102170.66
2019-02-06T02:13:55.627Z,102174.54
2019-02-06T02:16:23.899Z,102174.58
2019-02-06T02:18:52.157Z,102162.98
2019-02-06T02:21:20.722Z,102162.16
2019-02-06T02:23:48.985Z,102148.40
2019-02-06T02:26:17.259Z,102155.27
2019-02-06T02:28:45.554Z,102147.55
2019-02-06T02:31:13.850Z,102144.97
2019-02-06T02:33:42.110Z,102140.28
2019-02-06T02:36:15.659Z,102131.72
2019-02-06T02:38:40.374Z,102128.28
2019-02-06T02:41:08.638Z,102125.68
2019-02-06T02:43:36.924Z,102125.25
2019-02-06T02:46:05.250Z,102119.70
2019-02-06T02:48:33.557Z,102113.28
2019-02-06T02:51:01.834Z,102104.67
2019-02-06T02:53:30.368Z,102102.50
2019-02-06T02:55:58.645Z,102102.95
2019-02-06T02:58:26.911Z,102096.51
2019-02-06T03:00:56.829Z,102101.24
2019-02-06T03:03:26.748Z,102102.97
2019-02-06T03:05:55.017Z,102111.98
2019-02-06T03:08:23.296Z,102111.98
2019-02-06T03:10:51.558Z,102095.67
2019-02-06T03:13:19.884Z,102094.37
2019-02-06T03:15:48.151Z,102099.53
2019-02-06T03:18:16.436Z,102100.84
2019-02-06T03:20:44.699Z,102094.84
2019-02-06T03:23:13.034Z,102086.64
2019-02-06T03:25:41.583Z,102077.64
2019-02-06T03:28:09.817Z,102081.08
2019-02-06T03:30:38.155Z,102071.16
2019-02-06T03:33:06.421Z,102069.02
2019-02-06T03:35:34.720Z,102061.73
2019-02-06T03:38:02.982Z,102056.98
2019-02-06T03:40:31.252Z,102050.54
2019-02-06T03:42:59.725Z,102043.64
2019-02-06T03:45:27.984Z,102047.53
2019-02-06T03:47:56.244Z,102038.47
2019-02-06T03:50:24.511Z,102047.50
2019-02-06T03:52:52.780Z,102042.36
2019-02-06T03:55:21.055Z,102036.34
2019-02-06T03:57:49.350Z,102037.63
2019-02-06T04:00:19.124Z,102035.04
2019-02-06T04:02:47.429Z,102029.03
2019-02-06T04:05:15.768Z,102018.27
2019-02-06T04:07:44.112Z,102012.67
2019-02-06T04:10:17.373Z,102013.10
2019-02-06T04:12:45.743Z,102016.11
2019-02-06T04:15:14.481Z,102004.50
2019-02-06T04:17:42.821Z,102000.65
2019-02-06T04:20:15.851Z,102004.51
2019-02-06T04:22:44.229Z,101996.77
2019-02-06T04:25:14.203Z,101995.48
2019-02-06T04:27:42.503Z,101998.05
2019-02-06T04:30:13.893Z,101991.17
2019-02-06T04:32:42.216Z,101988.58
2019-02-06T04:35:12.158Z,101987.30
2019-02-06T04:37:40.418Z,101970.98
2019-02-06T04:40:14.525Z,101961.08
2019-02-06T04:42:42.827Z,101961.50
2019-02-06T04:45:13.167Z,101951.19
2019-02-06T04:47:42.475Z,101937.86
2019-02-06T04:50:12.738Z,101930.12
2019-02-06T04:52:41.061Z,101935.28
2019-02-06T04:55:12.171Z,101938.70
2019-02-06T04:57:40.460Z,101946.02
2019-02-06T05:00:26.674Z,101950.75
2019-02-06T05:02:54.942Z,101947.75
2019-02-06T05:05:23.326Z,101938.73
2019-02-06T05:07:51.780Z,101934.00
2019-02-06T05:10:20.058Z,101933.14
2019-02-06T05:12:48.567Z,101925.80
2019-02-06T05:15:17.669Z,101916.34
2019-02-06T05:17:45.966Z,101903.91
2019-02-06T05:20:32.434Z,101896.57
2019-02-06T05:23:00.695Z,101897.43
2019-02-06T05:25:29.195Z,101891.41
2019-02-06T05:27:57.561Z,101890.13
2019-02-06T05:30:25.837Z,101881.52
2019-02-06T05:32:54.103Z,101888.86
2019-02-06T05:35:22.429Z,101890.55
2019-02-06T05:37:50.724Z,101888.86
2019-02-06T05:40:18.997Z,101880.26
2019-02-06T05:42:47.549Z,101890.56
2019-02-06T05:45:16.609Z,101897.02
2019-02-06T05:47:44.970Z,101893.59
2019-02-06T05:50:17.340Z,101888.00
2019-02-06T05:52:45.642Z,101883.70
2019-02-06T05:55:15.574Z,101878.97
2019-02-06T05:57:44.319Z,101877.67
2019-02-06T06:00:22.217Z,101879.39
2019-02-06T06:02:50.468Z,101872.52
2019-02-06T06:05:18.821Z,101872.52
2019-02-06T06:07:47.085Z,101875.53
2019-02-06T06:10:17.248Z,101874.67
2019-02-06T06:12:45.847Z,101872.95
2019-02-06T06:15:16.440Z,101865.21
2019-02-06T06:17:44.716Z,101871.23
2019-02-06T06:20:15.651Z,101875.96
2019-02-06T06:22:43.977Z,101881.13
2019-02-06T06:25:14.088Z,101878.97
2019-02-06T06:27:42.358Z,101880.69
2019-02-06T06:30:15.642Z,101863.46
2019-02-06T06:32:44.022Z,101866.90
2019-02-06T06:35:13.830Z,101866.47
2019-02-06T06:37:42.098Z,101863.89
2019-02-06T06:40:13.290Z,101856.58
2019-02-06T06:42:41.863Z,101853.14
2019-02-06T06:45:16.032Z,101855.72
2019-02-06T06:47:44.277Z,101863.46
2019-02-06T06:50:15.212Z,101848.84
2019-02-06T06:52:43.481Z,101848.88
2019-02-06T06:55:13.714Z,101842.83
2019-02-06T06:57:42.259Z,101835.55
2019-02-06T07:00:13.718Z,101824.76
2019-02-06T07:02:41.976Z,101828.63
2019-02-06T07:05:12.733Z,101834.66
2019-02-06T07:07:41.113Z,101824.38
2019-02-06T07:10:12.520Z,101827.34
2019-02-06T07:12:41.053Z,101824.33
2019-02-06T07:15:17.806Z,101817.92
2019-02-06T07:17:46.066Z,101822.61
2019-02-06T07:20:16.601Z,101822.17
2019-02-06T07:22:44.906Z,101817.88
2019-02-06T07:25:15.488Z,101818.73
2019-02-06T07:27:43.767Z,101821.32
2019-02-06T07:30:15.207Z,101808.41
2019-02-06T07:32:43.529Z,101825.19
2019-02-06T07:35:11.840Z,101806.26
2019-02-06T07:37:40.926Z,101808.41
2019-02-06T07:40:11.772Z,101804.92
2019-02-06T07:42:40.042Z,101807.50
2019-02-06T07:45:11.145Z,101807.91
2019-02-06T07:47:39.474Z,101797.16
2019-02-06T07:50:11.052Z,101782.95
2019-02-06T07:52:39.289Z,101784.68
2019-02-06T07:55:07.563Z,101775.65
2019-02-06T07:57:36.135Z,101781.23
2019-02-06T08:00:06.989Z,101788.07
2019-02-06T08:02:35.781Z,101776.00
2019-02-06T08:05:06.745Z,101772.05
2019-02-06T08:07:35.035Z,101776.80
2019-02-06T08:10:03.880Z,101770.34
2019-02-06T08:12:32.432Z,101764.30
2019-02-06T08:15:00.712Z,101768.24
2019-02-06T08:17:29.013Z,101764.80
2019-02-06T08:19:57.429Z,101760.07
2019-02-06T08:22:25.674Z,101766.95
2019-02-06T08:24:53.950Z,101760.84
2019-02-06T08:27:22.268Z,101750.92
2019-02-06T08:29:50.805Z,101761.70
2019-02-06T08:32:19.109Z,101756.96
2019-02-06T08:34:47.379Z,101748.36
2019-02-06T08:37:15.689Z,101743.18
2019-02-06T08:39:43.973Z,101748.77
2019-02-06T08:42:12.400Z,101747.06
2019-02-06T08:44:40.987Z,101750.49
2019-02-06T08:47:09.238Z,101725.07
2019-02-06T08:49:37.575Z,101731.03
2019-02-06T08:52:05.892Z,101721.52
2019-02-06T08:54:34.178Z,101723.22
2019-02-06T08:57:02.462Z,101720.12
2019-02-06T08:59:30.723Z,101721.80
2019-02-06T09:01:59.294Z,101724.39
2019-02-06T09:04:27.603Z,101726.69
2019-02-06T09:06:55.855Z,101720.23
2019-02-06T09:09:24.196Z,101708.66
2019-02-06T09:11:52.438Z,101720.27
2019-02-06T09:14:20.766Z,101709.03
2019-02-06T09:16:49.003Z,101712.91
2019-02-06T09:19:17.555Z,101709.36
2019-02-06T09:21:45.817Z,101706.78
2019-02-06T09:24:14.099Z,101707.18
2019-02-06T09:26:42.356Z,101704.17
2019-02-06T09:29:10.615Z,101690.75
2019-02-06T09:31:39.468Z,101697.25
2019-02-06T09:34:09.697Z,101698.96
2019-02-06T09:36:37.721Z,101692.08
2019-02-06T09:39:11.792Z,101694.23
2019-02-06T09:41:37.954Z,101687.32
2019-02-06T09:44:06.209Z,101683.42
2019-02-06T09:46:34.478Z,101690.26
2019-02-06T09:49:02.761Z,101686.34
2019-02-06T09:51:31.413Z,101683.72
2019-02-06T09:53:59.669Z,101676.34
2019-02-06T09:56:27.941Z,101677.63
2019-02-06T09:58:56.239Z,101672.27
2019-02-06T10:01:24.512Z,101672.14
2019-02-06T10:03:52.785Z,101669.69
2019-02-06T10:06:21.048Z,101676.16
2019-02-06T10:08:49.596Z,101672.62
2019-02-06T10:11:17.935Z,101682.05
2019-02-06T10:13:46.210Z,101681.15
2019-02-06T10:16:14.528Z,101674.98
2019-02-06T10:18:42.807Z,101664.15
2019-02-06T10:21:11.129Z,101663.95
2019-02-06T10:23:40.369Z,101670.87
2019-02-06T10:26:08.627Z,101668.28
2019-02-06T10:28:36.876Z,101666.02
2019-02-06T10:31:05.153Z,101653.75
2019-02-06T10:33:33.440Z,101653.75
2019-02-06T10:36:01.717Z,101654.15
2019-02-06T10:38:29.987Z,101649.91
2019-02-06T10:40:58.251Z,101654.59
2019-02-06T10:43:32.105Z,101644.55
2019-02-06T10:45:56.489Z,101638.06
2019-02-06T10:48:24.796Z,101631.16
2019-02-06T10:50:53.031Z,101635.80
2019-02-06T10:53:21.324Z,101629.30
2019-02-06T10:55:49.722Z,101628.51
2019-02-06T10:58:18.261Z,101630.18
2019-02-06T11:00:49.420Z,101625.80
2019-02-06T11:03:17.712Z,101627.84
2019-02-06T11:05:45.973Z,101621.78
2019-02-06T11:08:14.340Z,101618.28
2019-02-06T11:10:42.606Z,101622.91
2019-02-06T11:13:10.877Z,101624.25
2019-02-06T11:15:40.060Z,101621.41
2019-02-06T11:18:08.350Z,101623.98
2019-02-06T11:20:38.607Z,101635.73
2019-02-06T11:23:07.716Z,101635.32
2019-02-06T11:25:36.324Z,101634.80
2019-02-06T11:28:05.338Z,101630.97
2019-02-06T11:30:35.951Z,101631.79
2019-02-06T11:33:05.133Z,101627.61
2019-02-06T11:35:33.362Z,101633.64
2019-02-06T11:38:01.637Z,101629.73
2019-02-06T11:40:29.909Z,101626.17
2019-02-06T11:42:58.175Z,101618.91
2019-02-06T11:45:31.760Z,101619.10
2019-02-06T11:48:00.287Z,101619.50
2019-02-06T11:50:36.379Z,101618.23
2019-02-06T11:53:05.591Z,101610.88
2019-02-06T11:55:33.935Z,101613.03
2019-02-06T11:58:02.196Z,101613.03
2019-02-06T12:00:32.204Z,101605.14
2019-02-06T12:03:00.474Z,101605.10
2019-02-06T12:05:28.742Z,101608.44
2019-02-06T12:07:57.033Z,101605.41
2019-02-06T12:10:25.287Z,101608.05
2019-02-06T12:12:53.554Z,101603.66
2019-02-06T12:15:22.172Z,101606.73
2019-02-06T12:17:50.423Z,101594.67
2019-02-06T12:20:21.861Z,101593.31
2019-02-06T12:22:50.140Z,101587.88
2019-02-06T12:25:18.948Z,101589.89
2019-02-06T12:27:51.978Z,101588.16
2019-02-06T12:30:25.948Z,101581.66
2019-02-06T12:32:54.232Z,101585.16
2019-02-06T12:35:22.739Z,101570.03
2019-02-06T12:37:51.009Z,101574.35
2019-02-06T12:40:21.956Z,101565.84
2019-02-06T12:42:50.289Z,101567.97
2019-02-06T12:45:19.984Z,101563.62
2019-02-06T12:47:48.258Z,101562.81
2019-02-06T12:50:23.600Z,101554.52
2019-02-06T12:52:51.866Z,101555.81
2019-02-06T12:55:26.249Z,101551.33
2019-02-06T12:57:56.785Z,101543.61
2019-02-06T13:00:27.666Z,101543.59
2019-02-06T13:02:59.668Z,101544.57
2019-02-06T13:05:26.264Z,101538.80
2019-02-06T13:07:54.568Z,101541.00
2019-02-06T13:10:33.263Z,101543.69
2019-02-06T13:12:53.842Z,101547.02
2019-02-06T13:15:22.102Z,101551.51
2019-02-06T13:17:50.660Z,101548.61
2019-02-06T13:20:22.090Z,101548.97
2019-02-06T13:22:50.426Z,101541.70
2019-02-06T13:25:18.860Z,101546.84
2019-02-06T13:27:47.135Z,101539.13
2019-02-06T13:30:23.802Z,101537.31
2019-02-06T13:32:52.349Z,101532.25
2019-02-06T13:35:20.617Z,101525.06
2019-02-06T13:37:48.882Z,101528.02
2019-02-06T13:40:19.857Z,101515.94
2019-02-06T13:42:48.111Z,101521.86
2019-02-06T13:45:21.972Z,101507.95
2019-02-06T13:47:50.419Z,101513.66
2019-02-06T13:50:22.345Z,101515.77
2019-02-06T13:52:50.316Z,101514.09
2019-02-06T13:55:18.671Z,101508.84
2019-02-06T13:57:46.952Z,101511.34
2019-02-06T14:00:29.303Z,101513.24
2019-02-06T14:02:57.681Z,101512.07
2019-02-06T14:05:30.244Z,101509.06
2019-02-06T14:08:01.298Z,101519.86
2019-02-06T14:10:31.101Z,101518.13
2019-02-06T14:12:59.996Z,101516.42
2019-02-06T14:15:38.850Z,101521.58
2019-02-06T14:18:07.384Z,101514.64
2019-02-06T14:20:35.662Z,101514.08
2019-02-06T14:23:19.198Z,101512.44
2019-02-06T14:26:14.160Z,101505.80
2019-02-06T14:28:53.084Z,101504.09
2019-02-06T14:31:33.149Z,101499.30
2019-02-06T14:34:16.472Z,101500.12
2019-02-06T14:36:56.671Z,101492.23
2019-02-06T14:39:36.978Z,101494.30
2019-02-06T14:42:26.014Z,101497.83
2019-02-06T14:45:08.888Z,101493.11
2019-02-06T14:47:49.241Z,101496.06
2019-02-06T14:50:29.365Z,101485.63
2019-02-06T14:53:16.166Z,101480.47
2019-02-06T14:55:58.936Z,101484.84
2019-02-06T14:58:36.006Z,101475.29
2019-02-06T15:01:10.131Z,101479.16
2019-02-06T15:03:47.020Z,101476.92
2019-02-06T15:06:34.691Z,101478.17
2019-02-06T15:09:26.981Z,101480.23
2019-02-06T15:12:13.223Z,101481.42
2019-02-06T15:14:46.093Z,101473.31
2019-02-06T15:17:29.659Z,101477.59
2019-02-06T15:20:15.172Z,101470.70
2019-02-06T15:22:49.550Z,101471.55
2019-02-06T15:25:32.768Z,101460.64
2019-02-06T15:28:19.301Z,101464.91
2019-02-06T15:30:53.331Z,101460.61
2019-02-06T15:33:36.525Z,101465.33
2019-02-06T15:36:07.973Z,101467.09
2019-02-06T15:38:47.956Z,101460.23
2019-02-06T15:41:31.002Z,101458.82
2019-02-06T15:44:03.969Z,101460.94
2019-02-06T15:46:50.320Z,101464.39
2019-02-06T15:49:28.154Z,101464.42
2019-02-06T15:52:17.274Z,101463.53
2019-02-06T15:54:54.482Z,101466.86
2019-02-06T15:57:40.674Z,101460.53
2019-02-06T16:00:20.203Z,101464.99
2019-02-06T16:02:51.651Z,101464.03
2019-02-06T16:05:42.348Z,101469.30
2019-02-06T16:08:33.158Z,101470.17
2019-02-06T16:11:22.395Z,101466.07
2019-02-06T16:14:14.544Z,101461.91
2019-02-06T16:17:02.210Z,101458.41
2019-02-06T16:20:04.994Z,101452.81
2019-02-06T16:22:57.246Z,101454.22
2019-02-06T16:25:31.569Z,101452.09
2019-02-06T16:28:17.847Z,101460.80
2019-02-06T16:30:54.761Z,101456.75
2019-02-06T16:33:54.523Z,101458.13
2019-02-06T16:36:44.274Z,101456.37
2019-02-06T16:39:30.334Z,101457.58
2019-02-06T16:42:30.139Z,101451.52
2019-02-06T16:45:16.443Z,101449.37
2019-02-06T16:48:04.112Z,101448.13
2019-02-06T16:50:38.237Z,101451.22
2019-02-06T16:53:21.563Z,101446.17
2019-02-06T16:56:24.421Z,101446.91
2019-02-06T16:59:25.788Z,101451.84
2019-02-06T17:02:11.974Z,101448.98
2019-02-06T17:04:55.246Z,101446.52
2019-02-06T17:07:32.586Z,101445.92
2019-02-06T17:10:29.173Z,101446.06
2019-02-06T17:13:03.136Z,101440.91
2019-02-06T17:15:54.686Z,101447.80
2019-02-06T17:18:31.634Z,101440.91
2019-02-06T17:21:19.327Z,101445.23
2019-02-06T17:24:05.863Z,101440.55
2019-02-06T17:26:46.171Z,101436.55
2019-02-06T17:29:32.505Z,101433.08
2019-02-06T17:32:20.403Z,101431.37
2019-02-06T17:35:09.692Z,101446.23
2019-02-06T17:38:05.017Z,101432.69
2019-02-06T17:41:06.012Z,101441.05
2019-02-06T17:43:39.087Z,101442.31
2019-02-06T17:46:22.216Z,101434.10
2019-02-06T17:49:27.880Z,101436.33
2019-02-06T17:52:13.890Z,101439.58
2019-02-06T17:55:00.309Z,101440.55
2019-02-06T17:57:28.551Z,101434.07
2019-02-06T17:59:56.986Z,101433.69
2019-02-06T18:02:25.253Z,101439.28
2019-02-06T18:04:55.393Z,101438.09
2019-02-06T18:07:23.655Z,101432.39
2019-02-06T18:09:51.919Z,101433.66
2019-02-06T18:12:26.314Z,101419.87
2019-02-06T18:14:50.193Z,101418.55
2019-02-06T18:17:18.739Z,101423.59
2019-02-06T18:19:47.001Z,101425.33
2019-02-06T18:22:15.267Z,101420.20
2019-02-06T18:24:43.528Z,101422.19
2019-02-06T18:27:12.060Z,101413.14
2019-02-06T18:29:40.394Z,101412.32
2019-02-06T18:32:08.667Z,101418.33
2019-02-06T18:34:37.200Z,101408.02
2019-02-06T18:37:06.654Z,101412.79
2019-02-06T18:39:34.928Z,101414.14
2019-02-06T18:42:03.209Z,101412.32
2019-02-06T18:44:31.472Z,101410.50
2019-02-06T18:47:00.465Z,101402.75
2019-02-06T18:49:28.749Z,101404.84
2019-02-06T18:51:57.581Z,101404.58
2019-02-06T18:54:26.130Z,101404.93
2019-02-06T18:56:54.395Z,101406.75
2019-02-06T18:59:22.670Z,101406.75
2019-02-06T19:01:50.982Z,101408.46
2019-02-06T19:04:19.370Z,101407.49
2019-02-06T19:06:47.705Z,101405.45
2019-02-06T19:09:16.050Z,101410.14
2019-02-06T19:11:44.491Z,101402.70
2019-02-06T19:14:13.337Z,101408.76
2019-02-06T19:16:41.648Z,101402.31
2019-02-06T19:19:10.138Z,101401.90
2019-02-06T19:21:38.446Z,101396.22
2019-02-06T19:24:07.547Z,101399.75
2019-02-06T19:26:35.825Z,101393.19
2019-02-06T19:29:04.647Z,101387.00
2019-02-06T19:31:32.919Z,101385.80
2019-02-06T19:34:01.570Z,101382.47
2019-02-06T19:36:29.826Z,101378.91
2019-02-06T19:38:59.368Z,101382.87
2019-02-06T19:41:30.771Z,101381.17
2019-02-06T19:43:59.042Z,101375.96
2019-02-06T19:46:27.321Z,101375.11
2019-02-06T19:48:55.575Z,101375.96
2019-02-06T19:51:24.192Z,101374.04
2019-02-06T19:53:52.452Z,101377.64
2019-02-06T19:56:20.732Z,101376.28
2019-02-06T19:58:57.874Z,101378.55
2019-02-06T20:01:30.911Z,101371.00
2019-02-06T20:03:59.890Z,101371.09
2019-02-06T20:06:30.560Z,101362.44
2019-02-06T20:08:59.155Z,101367.12
2019-02-06T20:11:27.439Z,101369.23
2019-02-06T20:13:55.939Z,101363.93
2019-02-06T20:16:24.204Z,101358.49
2019-02-06T20:18:54.786Z,101353.31
2019-02-06T20:21:23.056Z,101357.55
2019-02-06T20:23:51.326Z,101357.52
2019-02-06T20:26:21.076Z,101362.13
2019-02-06T20:28:49.360Z,101354.03
2019-02-06T20:31:18.650Z,101354.42
2019-02-06T20:33:46.911Z,101345.37
2019-02-06T20:36:15.269Z,101347.05
2019-02-06T20:38:43.757Z,101351.92
2019-02-06T20:41:12.506Z,101338.52
2019-02-06T20:43:42.052Z,101340.61
2019-02-06T20:46:10.330Z,101338.90
2019-02-06T20:48:38.595Z,101343.61
2019-02-06T20:51:06.856Z,101338.48
2019-02-06T20:53:36.313Z,101334.06
2019-02-06T20:56:05.060Z,101334.95
2019-02-06T20:58:35.761Z,101332.48
2019-02-06T21:01:04.370Z,101333.20
2019-02-06T21:03:32.643Z,101334.47
2019-02-06T21:06:00.906Z,101334.82
2019-02-06T21:08:29.172Z,101328.41
2019-02-06T21:10:57.463Z,101326.22
2019-02-06T21:13:32.858Z,101316.23
2019-02-06T21:15:55.708Z,101312.38
2019-02-06T21:18:24.274Z,101308.48
2019-02-06T21:20:52.503Z,101309.84
2019-02-06T21:23:20.756Z,101298.19
2019-02-06T21:25:49.029Z,101297.71
2019-02-06T21:28:17.304Z,101290.75
2019-02-06T21:30:47.022Z,101285.26
2019-02-06T21:33:15.315Z,101279.44
2019-02-06T21:35:43.760Z,101281.45
2019-02-06T21:38:12.026Z,101278.38
2019-02-06T21:40:40.291Z,101262.92
2019-02-06T21:43:08.546Z,101256.10
2019-02-06T21:45:36.822Z,101253.61
2019-02-06T21:48:06.621Z,101255.73
2019-02-06T21:50:35.172Z,101255.73
2019-02-06T21:53:03.434Z,101252.21
2019-02-06T21:55:31.692Z,101242.52
2019-02-06T21:58:00.027Z,101242.15
2019-02-06T22:00:39.993Z,101244.13
2019-02-06T22:03:10.716Z,101231.95
2019-02-06T22:05:38.238Z,101232.02
2019-02-06T22:08:06.570Z,101235.06
2019-02-06T22:10:34.839Z,101224.73
2019-02-06T22:13:03.095Z,101220.22
2019-02-06T22:15:32.101Z,101213.71
2019-02-06T22:18:00.427Z,101217.13
2019-02-06T22:20:28.942Z,101217.16
2019-02-06T22:22:57.215Z,101212.28
2019-02-06T22:25:25.553Z,101215.80
2019-02-06T22:27:53.815Z,101220.13
2019-02-06T22:30:26.984Z,101218.42
2019-02-06T22:32:55.260Z,101214.56
2019-02-06T22:35:23.795Z,101211.05
2019-02-06T22:37:52.065Z,101208.39
2019-02-06T22:40:22.062Z,101200.55
2019-02-06T22:42:50.343Z,101201.57
2019-02-06T22:45:23.630Z,101198.84
2019-02-06T22:47:51.904Z,101201.53
2019-02-06T22:50:26.418Z,101198.44
2019-02-06T22:52:54.695Z,101201.02
2019-02-06T22:55:23.135Z,101200.98
2019-02-06T22:57:51.404Z,101209.24
2019-02-06T23:00:51.014Z,101209.14
2019-02-06T23:03:22.532Z,101211.28
2019-02-06T23:05:50.803Z,101209.10
2019-02-06T23:08:19.081Z,101207.40
2019-02-06T23:10:47.382Z,101209.81
2019-02-06T23:13:15.910Z,101208.00
2019-02-06T23:15:44.183Z,101198.52
2019-02-06T23:18:12.458Z,101202.48
2019-02-06T23:20:40.720Z,101199.99
2019-02-06T23:23:09.011Z,101192.08
2019-02-06T23:25:37.269Z,101185.67
2019-02-06T23:28:05.542Z,101184.27
2019-02-06T23:30:33.852Z,101184.64
2019-02-06T23:33:02.126Z,101180.64
2019-02-06T23:35:30.400Z,101174.12
2019-02-06T23:37:58.665Z,101173.82
2019-02-06T23:40:26.927Z,101178.48
2019-02-06T23:42:55.201Z,101169.27
2019-02-06T23:45:23.742Z,101155.27
2019-02-06T23:47:52.022Z,101153.12
2019-02-06T23:50:20.280Z,101150.78
2019-02-06T23:52:48.551Z,101144.63
2019-02-06T23:55:16.861Z,101138.41
2019-02-06T23:57:45.124Z,101130.48
